Time;durP1;ratioP1;P1;durP2;ratioP2;P2;SDS_P1;SDS_P2;PMS_P1;PMS_P2;Temp;Humidity;BMP_temperature;BMP_pressure;BME280_temperature;BME280_humidity;BME280_pressure;Samples;Min_cycle;Max_cycle;Signal;HPM_P1;HPM_P2
2023/07/16 00:02:04;;;;;;;8.88;5.13;;;29.80;99.90;;;;;;5033312;28;20021;-70
2023/07/16 00:04:33;;;;;;;6.97;4.78;;;29.60;99.90;;;;;;5032698;28;20029;-70
2023/07/16 00:07:02;;;;;;;10.07;5.55;;;29.60;99.90;;;;;;5033499;28;20041;-70
2023/07/16 00:09:28;;;;;;;8.35;6.00;;;29.60;99.90;;;;;;5027869;28;20111;-70
2023/07/16 00:11:53;;;;;;;5.80;5.20;;;29.60;99.90;;;;;;5033682;28;20037;-70
2023/07/16 00:14:19;;;;;;;6.25;5.65;;;29.50;99.90;;;;;;5032866;28;20057;-70
2023/07/16 00:16:45;;;;;;;6.10;5.40;;;29.50;99.90;;;;;;5033632;28;20422;-70
2023/07/16 00:19:11;;;;;;;6.47;5.25;;;29.50;99.90;;;;;;5029776;28;20017;-69
2023/07/16 00:21:38;;;;;;;6.93;5.35;;;29.60;99.90;;;;;;5032104;28;20471;-70
2023/07/16 00:24:04;;;;;;;8.70;5.28;;;29.50;99.90;;;;;;5033679;28;20422;-70
2023/07/16 00:26:30;;;;;;;6.18;5.30;;;29.50;99.90;;;;;;5033090;28;20045;-70
2023/07/16 00:28:55;;;;;;;7.57;5.57;;;29.50;99.90;;;;;;5031609;28;20030;-70
2023/07/16 00:31:21;;;;;;;6.63;5.63;;;29.50;99.90;;;;;;5032206;28;20030;-70
2023/07/16 00:33:47;;;;;;;6.85;5.40;;;29.40;99.90;;;;;;5031431;28;20044;-70
2023/07/16 00:36:12;;;;;;;10.35;7.22;;;29.40;99.90;;;;;;5033088;28;20100;-70
2023/07/16 00:38:39;;;;;;;9.15;5.88;;;29.30;99.90;;;;;;5032294;28;20028;-70
2023/07/16 00:41:05;;;;;;;7.20;6.18;;;29.40;99.90;;;;;;5032963;28;20033;-70
2023/07/16 00:43:31;;;;;;;7.95;5.93;;;29.30;99.90;;;;;;5032273;28;20065;-70
2023/07/16 00:45:57;;;;;;;6.93;5.60;;;29.30;99.90;;;;;;5019113;28;20483;-70
2023/07/16 00:48:23;;;;;;;8.38;6.25;;;29.30;99.90;;;;;;5031934;28;20048;-70
2023/07/16 00:50:52;;;;;;;12.13;6.50;;;29.30;99.90;;;;;;5033042;28;20022;-70
2023/07/16 00:53:19;;;;;;;10.23;7.28;;;29.20;99.90;;;;;;5028308;28;20220;-70
2023/07/16 00:55:45;;;;;;;7.95;6.90;;;29.20;99.90;;;;;;5032920;28;20451;-70
2023/07/16 00:58:10;;;;;;;8.27;7.13;;;29.20;99.90;;;;;;5030926;28;20056;-70
2023/07/16 01:00:37;;;;;;;12.15;7.40;;;29.20;99.90;;;;;;5032840;28;20425;-70
2023/07/16 01:03:05;;;;;;;7.63;6.80;;;29.20;99.90;;;;;;5030687;28;20067;-70
2023/07/16 01:05:57;;;;;;;8.45;7.03;;;29.10;99.90;;;;;;5035214;28;20021;-70
2023/07/16 01:08:43;;;;;;;8.32;7.00;;;29.10;99.90;;;;;;5035610;28;20033;-70
2023/07/16 01:11:09;;;;;;;8.02;7.32;;;29.10;99.90;;;;;;5030762;28;20434;-70
2023/07/16 01:13:36;;;;;;;8.57;7.65;;;29.10;99.90;;;;;;5035178;28;20037;-70
2023/07/16 01:16:02;;;;;;;8.70;7.70;;;29.00;99.90;;;;;;5029060;28;20406;-70
2023/07/16 01:18:28;;;;;;;7.97;7.18;;;29.00;99.90;;;;;;5035211;28;20048;-70
2023/07/16 01:20:53;;;;;;;12.10;8.32;;;28.90;99.90;;;;;;5035090;28;20100;-70
2023/07/16 01:23:34;;;;;;;10.93;8.10;;;28.90;99.90;;;;;;5032263;28;20021;-70
2023/07/16 01:26:27;;;;;;;8.75;7.88;;;28.90;99.90;;;;;;5034153;28;20511;-70
2023/07/16 01:29:23;;;;;;;10.35;8.50;;;28.90;99.90;;;;;;5035811;28;20068;-70
2023/07/16 01:31:51;;;;;;;13.95;9.38;;;28.90;99.90;;;;;;5034331;28;20041;-70
2023/07/16 01:34:17;;;;;;;14.38;10.45;;;28.80;99.90;;;;;;5028018;28;20131;-70
2023/07/16 01:36:44;;;;;;;10.85;9.70;;;28.80;99.90;;;;;;5034687;28;20053;-70
2023/07/16 01:39:10;;;;;;;10.30;9.27;;;28.80;99.90;;;;;;5027686;28;20031;-70
2023/07/16 01:41:35;;;;;;;10.73;9.27;;;28.80;99.90;;;;;;5035156;28;20027;-70
2023/07/16 01:44:01;;;;;;;12.00;9.35;;;28.70;99.90;;;;;;5035717;28;20047;-69
2023/07/16 01:46:27;;;;;;;11.00;9.65;;;28.70;99.90;;;;;;5028631;28;20469;-70
2023/07/16 01:48:52;;;;;;;11.80;9.75;;;28.70;99.90;;;;;;5035574;28;20036;-70
2023/07/16 01:51:19;;;;;;;12.10;9.57;;;28.60;99.90;;;;;;5036324;28;20021;-70
2023/07/16 01:53:45;;;;;;;11.65;8.65;;;28.60;99.90;;;;;;5034107;28;20079;-70
2023/07/16 01:56:11;;;;;;;10.48;9.13;;;28.60;99.90;;;;;;5021558;28;20033;-69
2023/07/16 01:58:37;;;;;;;9.75;8.93;;;28.60;99.90;;;;;;5035247;28;20053;-70
2023/07/16 02:01:03;;;;;;;10.02;8.65;;;28.50;99.90;;;;;;5034741;28;20406;-70
2023/07/16 02:03:28;;;;;;;9.90;8.88;;;28.60;99.90;;;;;;5030109;28;20035;-70
2023/07/16 02:05:54;;;;;;;11.15;10.02;;;28.50;99.90;;;;;;5026394;28;20022;-70
2023/07/16 02:08:20;;;;;;;10.45;9.23;;;28.60;99.90;;;;;;5029097;28;20073;-70
2023/07/16 02:10:48;;;;;;;11.13;9.50;;;28.50;99.90;;;;;;5029914;28;20022;-70
2023/07/16 02:13:13;;;;;;;10.20;9.13;;;28.50;99.90;;;;;;5028527;28;20083;-70
2023/07/16 02:15:39;;;;;;;11.48;9.77;;;28.50;99.90;;;;;;5033531;28;20029;-70
2023/07/16 02:18:06;;;;;;;12.00;9.38;;;28.50;99.90;;;;;;5033411;28;20040;-70
2023/07/16 02:20:31;;;;;;;10.07;8.88;;;28.50;99.90;;;;;;5033411;28;20028;-70
2023/07/16 02:22:57;;;;;;;9.90;8.90;;;28.50;99.90;;;;;;5031715;28;20033;-70
2023/07/16 02:25:23;;;;;;;9.93;8.80;;;28.40;99.90;;;;;;5034413;28;20033;-70
2023/07/16 02:27:49;;;;;;;10.35;8.77;;;28.40;99.90;;;;;;5033476;28;20041;-70
2023/07/16 02:30:15;;;;;;;13.52;9.15;;;28.40;99.90;;;;;;5034498;28;20029;-71
2023/07/16 02:32:41;;;;;;;13.93;8.63;;;28.40;99.90;;;;;;5028343;28;20018;-70
2023/07/16 02:35:07;;;;;;;10.57;9.13;;;28.30;99.90;;;;;;5025679;28;20030;-70
2023/07/16 02:37:33;;;;;;;13.63;9.55;;;28.30;99.90;;;;;;5028403;28;20546;-70
2023/07/16 02:39:59;;;;;;;11.52;9.05;;;28.30;99.90;;;;;;5034258;28;20113;-69
2023/07/16 02:42:25;;;;;;;11.10;9.00;;;28.30;99.90;;;;;;5031478;28;20120;-70
2023/07/16 02:44:51;;;;;;;14.93;9.52;;;28.30;99.90;;;;;;5034069;28;20128;-70
2023/07/16 02:47:17;;;;;;;11.20;10.10;;;28.30;99.90;;;;;;5033150;28;20526;-70
2023/07/16 02:49:43;;;;;;;12.18;10.50;;;28.30;99.90;;;;;;5033885;28;20387;-70
2023/07/16 02:52:09;;;;;;;10.18;9.25;;;28.20;1.00;;;;;;5031702;28;20025;-70
2023/07/16 02:54:37;;;;;;;11.35;10.25;;;28.20;1.00;;;;;;5032914;28;20438;-70
2023/07/16 02:57:05;;;;;;;13.65;10.45;;;28.10;1.00;;;;;;5033074;28;20037;-70
2023/07/16 02:59:30;;;;;;;11.15;10.10;;;28.10;1.00;;;;;;4981623;28;1125034;-70
2023/07/16 03:01:56;;;;;;;12.00;10.05;;;28.10;1.00;;;;;;5034119;28;20436;-70
2023/07/16 03:04:22;;;;;;;12.15;10.82;;;28.10;1.00;;;;;;5034779;28;20379;-70
2023/07/16 03:06:47;;;;;;;12.23;10.10;;;28.10;1.00;;;;;;5032192;28;20140;-70
2023/07/16 03:09:13;;;;;;;11.15;9.65;;;28.10;1.00;;;;;;5034582;28;20052;-70
2023/07/16 03:11:39;;;;;;;12.93;9.70;;;28.10;1.00;;;;;;5033565;28;20056;-70
2023/07/16 03:14:04;;;;;;;11.25;9.27;;;28.00;1.00;;;;;;5034467;28;20116;-70
2023/07/16 03:16:30;;;;;;;11.63;10.57;;;28.10;1.00;;;;;;5033277;28;20067;-70
2023/07/16 03:18:55;;;;;;;11.35;9.95;;;28.00;1.00;;;;;;5034678;28;20029;-70
2023/07/16 03:21:21;;;;;;;11.15;10.02;;;28.10;1.00;;;;;;5033538;28;20090;-70
2023/07/16 03:23:47;;;;;;;10.57;9.70;;;28.00;1.00;;;;;;5034238;28;20025;-70
2023/07/16 03:26:12;;;;;;;11.70;9.52;;;28.10;1.00;;;;;;5033587;28;20025;-70
2023/07/16 03:28:38;;;;;;;12.10;9.80;;;28.10;1.00;;;;;;5033053;28;20041;-69
2023/07/16 03:31:04;;;;;;;11.43;9.20;;;28.10;1.00;;;;;;5033591;28;20029;-70
2023/07/16 03:33:29;;;;;;;12.57;10.65;;;28.10;1.00;;;;;;5033726;28;20160;-71
2023/07/16 03:35:55;;;;;;;12.80;9.90;;;28.00;1.00;;;;;;5022016;28;20360;-70
2023/07/16 03:38:20;;;;;;;14.13;10.15;;;27.90;1.00;;;;;;5033160;28;20495;-69
2023/07/16 03:40:48;;;;;;;11.35;10.20;;;27.90;1.00;;;;;;5031312;28;20030;-70
2023/07/16 03:43:15;;;;;;;13.77;11.07;;;27.90;1.00;;;;;;5031087;28;20025;-70
2023/07/16 03:45:41;;;;;;;13.68;10.85;;;27.90;1.00;;;;;;5031028;28;20505;-70
2023/07/16 03:48:06;;;;;;;12.68;10.25;;;28.00;1.00;;;;;;5032703;28;20049;-70
2023/07/16 03:50:32;;;;;;;11.82;9.93;;;28.00;1.00;;;;;;5032912;28;20037;-70
2023/07/16 03:52:58;;;;;;;14.35;11.07;;;28.00;1.00;;;;;;5032868;28;20497;-70
2023/07/16 03:55:24;;;;;;;13.95;10.95;;;28.00;1.00;;;;;;5034078;28;20044;-70
2023/07/16 03:57:50;;;;;;;10.82;9.77;;;28.00;1.00;;;;;;5031747;28;20394;-70
2023/07/16 04:00:15;;;;;;;12.20;9.48;;;27.90;1.00;;;;;;5032473;28;20029;-70
2023/07/16 04:02:41;;;;;;;12.68;10.85;;;27.90;1.00;;;;;;5032813;28;20029;-70
2023/07/16 04:05:07;;;;;;;10.38;9.35;;;27.90;1.00;;;;;;5033717;28;20029;-70
2023/07/16 04:07:33;;;;;;;11.98;9.50;;;27.90;1.00;;;;;;5032396;28;20026;-69
2023/07/16 04:09:59;;;;;;;11.88;10.07;;;28.00;1.00;;;;;;5033790;28;20502;-70
2023/07/16 04:12:24;;;;;;;13.05;10.70;;;28.00;1.00;;;;;;5032675;28;20129;-70
2023/07/16 04:14:56;;;;;;;14.23;10.55;;;27.90;1.00;;;;;;5032174;28;20029;-70
2023/07/16 04:17:22;;;;;;;12.10;10.43;;;27.80;1.00;;;;;;5031446;28;20364;-70
2023/07/16 04:19:47;;;;;;;11.50;10.30;;;28.00;1.00;;;;;;5033664;28;20045;-70
2023/07/16 04:22:13;;;;;;;12.10;10.57;;;27.90;1.00;;;;;;5031550;28;20535;-70
2023/07/16 04:24:39;;;;;;;16.85;11.27;;;27.90;1.00;;;;;;5033500;28;20040;-70
2023/07/16 04:27:05;;;;;;;13.60;10.63;;;27.90;1.00;;;;;;5032274;28;20040;-70
2023/07/16 04:29:31;;;;;;;11.00;9.93;;;27.90;1.00;;;;;;5032150;28;20025;-70
2023/07/16 04:31:56;;;;;;;11.73;10.20;;;27.90;1.00;;;;;;5032223;28;20072;-70
2023/07/16 04:34:22;;;;;;;14.77;10.98;;;27.90;1.00;;;;;;5031115;28;20075;-70
2023/07/16 04:36:48;;;;;;;14.02;10.23;;;27.90;1.00;;;;;;5025194;28;20028;-70
2023/07/16 04:39:13;;;;;;;13.30;10.60;;;27.90;1.00;;;;;;5032938;28;20025;-70
2023/07/16 04:41:39;;;;;;;14.63;11.30;;;27.90;1.00;;;;;;5032378;28;20101;-70
2023/07/16 04:44:05;;;;;;;13.20;11.13;;;27.80;1.00;;;;;;5032972;28;20025;-70
2023/07/16 04:46:31;;;;;;;12.48;10.20;;;27.90;1.00;;;;;;5032278;28;20021;-70
2023/07/16 04:48:56;;;;;;;14.38;10.85;;;27.90;1.00;;;;;;5032990;28;20497;-70
2023/07/16 04:51:22;;;;;;;12.25;10.75;;;27.90;1.00;;;;;;5032016;28;20053;-69
2023/07/16 04:53:48;;;;;;;12.55;11.10;;;28.00;1.00;;;;;;5032860;28;20033;-70
2023/07/16 04:56:15;;;;;;;14.23;11.18;;;28.00;1.00;;;;;;5032933;28;20052;-70
2023/07/16 04:58:42;;;;;;;14.90;11.02;;;28.00;1.00;;;;;;5027698;28;20155;-69
2023/07/16 05:01:10;;;;;;;11.57;10.32;;;28.00;1.00;;;;;;5032852;28;20045;-69
2023/07/16 05:03:36;;;;;;;13.68;10.63;;;28.00;1.00;;;;;;5021893;28;20561;-70
2023/07/16 05:06:03;;;;;;;12.82;11.40;;;27.90;1.00;;;;;;5027975;28;20029;-70
2023/07/16 05:08:28;;;;;;;12.85;11.43;;;27.90;1.00;;;;;;5029918;28;20069;-70
2023/07/16 05:10:54;;;;;;;13.02;11.63;;;28.00;1.00;;;;;;5031820;28;20510;-70
2023/07/16 05:13:20;;;;;;;13.82;11.20;;;28.10;1.00;;;;;;5032730;28;20034;-69
2023/07/16 05:15:45;;;;;;;14.80;10.80;;;28.00;1.00;;;;;;5032996;28;20068;-70
2023/07/16 05:18:11;;;;;;;11.80;10.60;;;28.00;1.00;;;;;;5031785;28;20025;-70
2023/07/16 05:20:37;;;;;;;15.88;11.20;;;28.00;1.00;;;;;;5032721;28;20033;-70
2023/07/16 05:23:03;;;;;;;11.55;10.35;;;28.00;1.00;;;;;;5028479;28;20104;-70
2023/07/16 05:25:28;;;;;;;14.15;10.77;;;28.00;1.00;;;;;;5029679;28;20108;-69
2023/07/16 05:27:55;;;;;;;13.75;10.90;;;28.00;1.00;;;;;;5031093;28;20061;-70
2023/07/16 05:30:21;;;;;;;14.18;12.02;;;28.00;1.00;;;;;;5031651;28;20048;-70
2023/07/16 05:32:46;;;;;;;12.73;11.43;;;28.00;1.00;;;;;;5030753;28;20033;-70
2023/07/16 05:35:12;;;;;;;13.07;11.77;;;28.00;1.00;;;;;;5031658;28;20021;-70
2023/07/16 05:37:38;;;;;;;13.50;12.20;;;28.10;1.00;;;;;;5032589;28;20033;-70
2023/07/16 05:40:04;;;;;;;12.85;11.55;;;28.10;1.00;;;;;;5030523;28;20443;-70
2023/07/16 05:42:30;;;;;;;12.10;11.00;;;28.20;1.00;;;;;;5032422;28;20040;-70
2023/07/16 05:44:55;;;;;;;12.82;10.98;;;28.10;1.00;;;;;;5031836;28;20025;-70
2023/07/16 05:47:21;;;;;;;12.80;11.50;;;28.20;1.00;;;;;;5030138;28;20421;-70
2023/07/16 05:49:47;;;;;;;12.38;11.23;;;28.20;1.00;;;;;;5032339;28;20458;-70
2023/07/16 05:52:13;;;;;;;10.90;9.80;;;28.20;1.00;;;;;;5034674;28;20049;-70
2023/07/16 05:54:39;;;;;;;10.75;9.30;;;28.20;1.00;;;;;;5036044;28;20053;-70
2023/07/16 05:57:05;;;;;;;12.25;10.32;;;28.10;1.00;;;;;;5035059;28;20463;-70
2023/07/16 05:59:34;;;;;;;13.32;11.52;;;28.20;1.00;;;;;;5034145;28;20053;-70
2023/07/16 06:02:00;;;;;;;12.10;10.02;;;28.20;1.00;;;;;;5034649;28;20105;-69
2023/07/16 06:04:25;;;;;;;12.80;9.65;;;28.20;1.00;;;;;;5035893;28;20129;-70
2023/07/16 06:06:51;;;;;;;11.10;9.93;;;28.20;1.00;;;;;;5034823;28;20081;-70
2023/07/16 06:09:17;;;;;;;12.68;9.68;;;28.30;1.00;;;;;;5036101;28;20417;-70
2023/07/16 06:11:45;;;;;;;11.48;9.50;;;28.30;1.00;;;;;;5034853;28;20487;-70
2023/07/16 06:14:11;;;;;;;13.57;9.77;;;28.40;1.00;;;;;;5035088;28;20025;-70
2023/07/16 06:16:36;;;;;;;11.85;9.25;;;28.30;1.00;;;;;;5033516;28;20029;-70
2023/07/16 06:19:02;;;;;;;12.50;9.55;;;28.30;1.00;;;;;;5034616;28;20100;-70
2023/07/16 06:21:28;;;;;;;15.40;9.60;;;28.30;1.00;;;;;;5035593;28;20029;-70
2023/07/16 06:23:53;;;;;;;12.93;10.13;;;28.40;1.00;;;;;;5034989;28;20483;-70
2023/07/16 06:26:19;;;;;;;12.30;10.23;;;28.30;1.00;;;;;;5034370;28;20030;-70
2023/07/16 06:28:49;;;;;;;9.93;8.93;;;28.40;1.00;;;;;;5034055;28;20091;-70
2023/07/16 06:31:15;;;;;;;10.45;9.40;;;28.40;1.00;;;;;;5033589;28;20520;-70
2023/07/16 06:33:40;;;;;;;11.75;9.20;;;28.40;1.00;;;;;;5034405;28;20045;-70
2023/07/16 06:36:06;;;;;;;12.80;9.25;;;28.40;1.00;;;;;;5035297;28;20017;-70
2023/07/16 06:38:32;;;;;;;11.10;9.23;;;28.50;1.00;;;;;;5033029;28;20029;-69
2023/07/16 06:40:57;;;;;;;11.93;9.13;;;28.50;1.00;;;;;;5035213;28;20028;-70
2023/07/16 06:43:23;;;;;;;9.30;8.35;;;28.50;1.00;;;;;;5034202;28;20060;-70
2023/07/16 06:45:50;;;;;;;10.98;9.88;;;28.50;1.00;;;;;;5034098;28;20025;-70
2023/07/16 06:48:16;;;;;;;9.48;8.48;;;28.60;1.00;;;;;;5033778;28;20064;-70
2023/07/16 06:50:42;;;;;;;10.85;9.15;;;28.60;1.00;;;;;;5034041;28;20108;-71
2023/07/16 06:53:08;;;;;;;11.32;10.10;;;28.60;1.00;;;;;;5031177;28;20424;-70
2023/07/16 06:55:33;;;;;;;12.63;9.82;;;28.60;1.00;;;;;;5034256;28;20134;-70
2023/07/16 06:58:00;;;;;;;11.30;9.38;;;28.70;1.00;;;;;;5034610;28;20056;-70
2023/07/16 07:00:26;;;;;;;10.93;9.30;;;28.60;1.00;;;;;;5033310;28;20144;-70
2023/07/16 07:02:51;;;;;;;11.43;10.30;;;28.70;1.00;;;;;;5033649;28;20025;-70
2023/07/16 07:05:17;;;;;;;11.65;9.38;;;28.70;1.00;;;;;;5033971;28;20072;-70
2023/07/16 07:07:44;;;;;;;11.77;9.50;;;28.70;1.00;;;;;;5032380;28;20411;-70
2023/07/16 07:10:11;;;;;;;12.20;9.93;;;28.80;1.00;;;;;;5028697;28;20084;-70
2023/07/16 07:12:37;;;;;;;14.32;10.57;;;28.80;1.00;;;;;;5019261;28;20057;-70
2023/07/16 07:15:07;;;;;;;13.50;10.52;;;28.80;1.00;;;;;;5018949;28;20385;-70
2023/07/16 07:17:32;;;;;;;11.73;9.73;;;28.80;1.00;;;;;;5033691;28;20018;-70
2023/07/16 07:19:58;;;;;;;11.98;9.25;;;28.80;1.00;;;;;;5034419;28;20049;-70
2023/07/16 07:22:24;;;;;;;13.60;9.55;;;28.90;1.00;;;;;;5033842;28;20014;-70
2023/07/16 07:24:50;;;;;;;10.38;9.45;;;28.90;1.00;;;;;;5034615;28;20035;-70
2023/07/16 07:27:16;;;;;;;10.68;9.57;;;28.90;1.00;;;;;;5029075;28;20026;-70
2023/07/16 07:29:41;;;;;;;10.93;9.25;;;28.90;1.00;;;;;;5034288;28;20083;-70
2023/07/16 07:32:08;;;;;;;10.80;9.43;;;28.90;1.00;;;;;;5033775;28;20093;-70
2023/07/16 07:34:33;;;;;;;12.90;8.88;;;28.90;1.00;;;;;;5034258;28;20022;-70
2023/07/16 07:36:59;;;;;;;13.48;9.57;;;29.00;1.00;;;;;;5027596;28;20823;-70
2023/07/16 07:39:24;;;;;;;12.20;9.30;;;29.00;1.00;;;;;;5034081;28;20447;-70
2023/07/16 07:41:50;;;;;;;13.05;9.27;;;29.10;1.00;;;;;;5032952;28;20034;-70
2023/07/16 07:44:16;;;;;;;10.25;8.38;;;29.10;1.00;;;;;;5033996;28;20510;-70
2023/07/16 07:46:41;;;;;;;10.68;8.75;;;29.10;1.00;;;;;;5029108;28;20545;-70
2023/07/16 07:49:07;;;;;;;10.93;9.20;;;29.10;1.00;;;;;;5033923;28;20030;-70
2023/07/16 07:51:32;;;;;;;14.15;8.52;;;29.20;1.00;;;;;;5033314;28;20032;-70
2023/07/16 07:53:58;;;;;;;11.52;8.25;;;29.30;1.00;;;;;;5033817;28;20064;-70
2023/07/16 07:56:24;;;;;;;11.32;8.63;;;29.30;1.00;;;;;;5032816;28;20033;-70
2023/07/16 07:58:49;;;;;;;9.40;8.02;;;29.30;1.00;;;;;;5029010;28;20198;-70
2023/07/16 08:01:15;;;;;;;10.98;8.10;;;29.30;99.90;;;;;;5029382;28;20463;-70
2023/07/16 08:03:41;;;;;;;11.93;8.85;;;29.30;99.90;;;;;;5032731;28;20026;-70
2023/07/16 08:06:06;;;;;;;11.57;9.15;;;29.30;99.90;;;;;;5032311;28;20084;-70
2023/07/16 08:08:32;;;;;;;11.90;8.75;;;29.40;99.90;;;;;;5026277;28;20038;-70
2023/07/16 08:10:58;;;;;;;9.65;8.00;;;29.40;99.90;;;;;;5026354;28;20021;-71
2023/07/16 08:13:23;;;;;;;10.48;9.10;;;29.50;99.90;;;;;;5031669;28;20368;-70
2023/07/16 08:15:49;;;;;;;10.93;8.65;;;29.50;99.90;;;;;;5032569;28;20055;-70
2023/07/16 08:18:14;;;;;;;14.85;8.80;;;29.60;99.90;;;;;;5032398;28;20026;-70
2023/07/16 08:20:43;;;;;;;8.95;8.05;;;29.60;99.90;;;;;;5032711;28;20022;-70
2023/07/16 08:23:09;;;;;;;10.60;8.60;;;29.70;99.90;;;;;;5032876;28;20045;-70
2023/07/16 08:25:35;;;;;;;9.38;8.48;;;29.70;99.90;;;;;;5019690;28;20029;-69
2023/07/16 08:28:02;;;;;;;8.43;7.65;;;29.70;99.90;;;;;;5033374;28;20041;-70
2023/07/16 08:30:28;;;;;;;13.13;9.00;;;29.80;99.90;;;;;;5032210;28;20380;-70
2023/07/16 08:32:53;;;;;;;9.15;8.15;;;29.80;99.90;;;;;;5032149;28;20044;-70
2023/07/16 08:35:19;;;;;;;9.48;8.50;;;29.80;99.90;;;;;;5033419;28;20029;-70
2023/07/16 08:37:45;;;;;;;11.75;8.25;;;29.90;99.90;;;;;;5032039;28;20049;-70
2023/07/16 08:40:14;;;;;;;10.95;8.32;;;29.90;99.90;;;;;;5033233;28;20021;-70
2023/07/16 08:42:40;;;;;;;15.73;9.30;;;30.00;99.90;;;;;;5030205;28;20028;-70
2023/07/16 08:45:14;;;;;;;10.52;9.48;;;30.00;99.90;;;;;;5030030;28;20415;-70
2023/07/16 08:47:39;;;;;;;;;;;30.10;99.90;;;;;;5032328;28;20041;-70
2023/07/16 08:50:06;;;;;;;14.73;9.10;;;30.00;99.90;;;;;;5028507;28;19908;-70
2023/07/16 08:52:31;;;;;;;10.90;8.55;;;30.00;99.90;;;;;;5032147;28;20386;-70
2023/07/16 08:54:57;;;;;;;12.80;8.80;;;30.10;99.90;;;;;;5031952;28;20028;-70
2023/07/16 08:57:23;;;;;;;13.63;8.93;;;30.20;99.90;;;;;;5019406;28;20018;-69
2023/07/16 08:59:50;;;;;;;12.02;8.40;;;30.30;99.90;;;;;;5013170;28;20037;-70
2023/07/16 09:02:19;;;;;;;13.02;10.57;;;30.30;99.90;;;;;;5024094;28;20369;-70
2023/07/16 09:04:49;;;;;;;12.27;9.65;;;30.50;99.90;;;;;;5029088;28;20546;-70
2023/07/16 09:07:15;;;;;;;11.57;10.32;;;30.50;99.90;;;;;;5028186;28;20563;-70
2023/07/16 09:09:41;;;;;;;10.18;9.18;;;30.60;99.90;;;;;;5013281;28;20376;-70
2023/07/16 09:12:11;;;;;;;13.73;9.60;;;30.80;99.90;;;;;;5014042;28;20030;-70
2023/07/16 09:14:37;;;;;;;13.93;9.55;;;30.90;99.90;;;;;;5016799;28;20030;-70
2023/07/16 09:17:03;;;;;;;14.35;10.48;;;31.00;99.90;;;;;;5021663;28;20168;-70
2023/07/16 09:19:32;;;;;;;14.35;10.13;;;31.10;99.90;;;;;;5031638;28;20025;-70
2023/07/16 09:21:57;;;;;;;11.23;10.02;;;31.20;99.90;;;;;;5030576;28;20105;-70
2023/07/16 09:24:23;;;;;;;12.25;10.07;;;31.30;99.90;;;;;;5023128;28;20101;-70
2023/07/16 09:26:53;;;;;;;11.52;9.73;;;31.20;99.90;;;;;;5034879;28;20029;-70
2023/07/16 09:29:19;;;;;;;12.63;9.77;;;31.20;99.90;;;;;;5036796;28;20053;-71
2023/07/16 09:31:58;;;;;;;12.13;10.55;;;31.20;99.90;;;;;;5034401;28;20079;-70
2023/07/16 09:34:27;;;;;;;11.35;9.30;;;31.40;99.90;;;;;;5035550;28;20036;-70
2023/07/16 09:36:52;;;;;;;11.13;8.88;;;31.50;99.90;;;;;;5036618;28;20024;-70
2023/07/16 09:39:19;;;;;;;11.27;9.10;;;31.70;99.90;;;;;;5035488;28;20025;-70
2023/07/16 09:41:49;;;;;;;10.85;9.10;;;31.70;99.90;;;;;;5030076;28;20029;-70
2023/07/16 09:44:16;;;;;;;13.65;9.50;;;31.70;99.90;;;;;;5036586;28;20034;-70
2023/07/16 09:46:42;;;;;;;11.63;9.50;;;31.70;99.90;;;;;;5034257;28;20021;-70
2023/07/16 09:49:09;;;;;;;11.27;10.23;;;31.70;99.90;;;;;;5034221;28;20067;-70
2023/07/16 09:51:36;;;;;;;14.15;12.75;;;31.80;99.90;;;;;;5032679;28;20522;-70
2023/07/16 09:54:03;;;;;;;10.85;9.27;;;31.80;99.90;;;;;;5026582;28;20056;-70
2023/07/16 09:56:45;;;;;;;10.98;9.50;;;31.80;99.90;;;;;;5030716;28;20033;-70
2023/07/16 09:59:16;;;;;;;13.43;12.10;;;31.90;99.90;;;;;;5026537;28;20559;-70
2023/07/16 10:01:42;;;;;;;14.73;12.40;;;31.60;99.90;;;;;;5030955;28;20026;-71
2023/07/16 10:04:15;;;;;;;13.75;12.32;;;31.50;99.90;;;;;;5035060;28;20364;-70
2023/07/16 10:06:51;;;;;;;13.35;11.25;;;31.20;99.90;;;;;;5034727;28;20021;-70
2023/07/16 10:09:35;;;;;;;13.30;12.07;;;31.20;99.90;;;;;;5034651;28;20037;-70
2023/07/16 10:12:10;;;;;;;13.88;12.45;;;31.20;99.90;;;;;;5034869;28;20033;-70
2023/07/16 10:14:46;;;;;;;13.98;12.05;;;31.20;99.90;;;;;;5036041;28;20041;-70
2023/07/16 10:17:16;;;;;;;13.50;11.10;;;31.10;99.90;;;;;;5032349;28;20387;-70
2023/07/16 10:19:58;;;;;;;12.73;11.52;;;31.10;99.90;;;;;;5034652;28;20029;-70
2023/07/16 10:22:45;;;;;;;12.65;11.27;;;31.00;99.90;;;;;;5032204;28;20433;-70
2023/07/16 10:25:17;;;;;;;12.82;11.50;;;31.00;99.90;;;;;;5035735;28;20108;-70
2023/07/16 10:27:43;;;;;;;13.20;10.27;;;31.10;99.90;;;;;;5033751;28;20033;-70
2023/07/16 10:30:09;;;;;;;10.73;9.68;;;31.20;99.90;;;;;;5034482;28;20029;-70
2023/07/16 10:32:35;;;;;;;11.63;10.45;;;31.20;99.90;;;;;;5035034;28;20032;-70
2023/07/16 10:35:01;;;;;;;11.52;10.30;;;31.20;99.90;;;;;;5033615;28;20025;-70
2023/07/16 10:37:27;;;;;;;13.93;9.27;;;31.20;99.90;;;;;;5034862;28;20087;-69
2023/07/16 10:39:55;;;;;;;14.45;10.82;;;31.20;99.90;;;;;;5033171;28;20396;-70
2023/07/16 10:42:22;;;;;;;14.73;9.88;;;31.20;99.90;;;;;;5035336;28;20030;-70
2023/07/16 10:44:53;;;;;;;9.45;8.43;;;31.20;99.90;;;;;;5032992;28;20101;-70
2023/07/16 10:47:32;;;;;;;15.10;12.45;;;31.20;99.90;;;;;;5033402;28;20068;-70
2023/07/16 10:49:58;;;;;;;11.63;9.63;;;31.10;99.90;;;;;;5027703;28;20530;-70
2023/07/16 10:52:24;;;;;;;11.73;9.43;;;31.20;99.90;;;;;;5026737;28;20029;-70
2023/07/16 10:54:54;;;;;;;10.98;9.85;;;31.20;99.90;;;;;;5033113;28;20112;-69
2023/07/16 10:57:21;;;;;;;14.20;9.88;;;31.40;99.90;;;;;;5017832;28;20029;-69
2023/07/16 10:59:48;;;;;;;12.63;9.65;;;31.30;99.90;;;;;;5027178;28;20045;-70
2023/07/16 11:02:15;;;;;;;9.90;9.00;;;31.40;99.90;;;;;;5033457;28;20039;-70
2023/07/16 11:04:42;;;;;;;10.93;9.82;;;31.70;99.90;;;;;;5034791;28;20029;-70
2023/07/16 11:07:09;;;;;;;10.00;8.60;;;31.90;99.90;;;;;;5033723;28;20044;-70
2023/07/16 11:09:56;;;;;;;9.60;8.65;;;32.00;99.90;;;;;;5034752;28;20080;-70
2023/07/16 11:12:23;;;;;;;9.52;8.63;;;32.20;99.90;;;;;;5032708;28;20096;-70
2023/07/16 11:14:50;;;;;;;11.27;9.05;;;32.20;99.90;;;;;;5034625;28;20044;-70
2023/07/16 11:17:16;;;;;;;14.13;8.82;;;32.50;99.90;;;;;;5021260;28;20025;-70
2023/07/16 11:19:46;;;;;;;9.23;8.43;;;32.50;99.90;;;;;;5034534;28;20032;-70
2023/07/16 11:22:12;;;;;;;10.55;8.88;;;32.70;99.90;;;;;;5033478;28;20423;-70
2023/07/16 11:24:46;;;;;;;13.25;9.25;;;32.90;99.90;;;;;;5034875;28;20107;-70
2023/07/16 11:27:21;;;;;;;11.07;8.13;;;33.20;99.90;;;;;;5033218;28;20033;-69
2023/07/16 11:29:51;;;;;;;10.07;8.30;;;33.40;99.90;;;;;;5034357;28;20021;-69
2023/07/16 11:32:37;;;;;;;9.43;8.55;;;34.30;99.90;;;;;;5033528;28;20104;-70
2023/07/16 11:35:07;;;;;;;9.35;8.55;;;39.00;99.90;;;;;;5034281;28;20040;-70
2023/07/16 11:37:35;;;;;;;9.93;8.48;;;41.00;99.90;;;;;;5033169;28;20032;-70
2023/07/16 11:40:06;;;;;;;11.52;8.88;;;42.40;99.90;;;;;;5033201;28;20108;-68
2023/07/16 11:42:36;;;;;;;9.63;8.63;;;42.70;99.90;;;;;;5033970;28;20045;-68
2023/07/16 11:45:03;;;;;;;10.38;9.20;;;42.50;99.90;;;;;;5032124;28;20034;-69
2023/07/16 11:47:29;;;;;;;10.95;9.85;;;43.50;99.90;;;;;;5033034;28;20446;-68
2023/07/16 11:49:56;;;;;;;10.85;9.07;;;45.60;99.90;;;;;;5033257;28;20025;-69
2023/07/16 11:52:28;;;;;;;9.75;8.77;;;46.90;99.90;;;;;;5032445;28;20021;-68
2023/07/16 11:54:56;;;;;;;9.07;8.38;;;47.80;99.90;;;;;;5032457;28;20041;-68
2023/07/16 11:57:22;;;;;;;9.85;8.90;;;47.80;99.90;;;;;;5022908;28;20018;-68
2023/07/16 11:59:47;;;;;;;10.02;9.00;;;48.00;99.90;;;;;;5033838;28;20033;-69
2023/07/16 12:02:13;;;;;;;10.27;9.30;;;47.70;99.90;;;;;;5027765;28;20029;-69
2023/07/16 12:04:39;;;;;;;9.90;8.95;;;46.70;99.90;;;;;;5032030;28;20160;-70
2023/07/16 12:07:04;;;;;;;10.63;9.52;;;46.40;99.90;;;;;;5031559;28;20037;-69
2023/07/16 12:09:30;;;;;;;10.63;9.63;;;46.40;99.90;;;;;;5033492;28;20060;-69
2023/07/16 12:11:56;;;;;;;9.90;8.95;;;46.40;99.90;;;;;;5032561;28;20471;-69
2023/07/16 12:14:22;;;;;;;9.57;8.82;;;48.20;99.90;;;;;;5030366;28;20041;-69
2023/07/16 12:16:48;;;;;;;10.07;9.23;;;48.30;99.90;;;;;;5021820;28;20025;-70
2023/07/16 12:19:13;;;;;;;10.25;9.48;;;48.40;99.90;;;;;;5033647;28;20083;-69
2023/07/16 12:21:39;;;;;;;10.40;9.30;;;46.60;99.90;;;;;;5031359;28;20033;-69
2023/07/16 12:24:05;;;;;;;9.95;9.05;;;44.50;99.90;;;;;;5030576;28;20037;-70
2023/07/16 12:26:31;;;;;;;9.90;9.10;;;42.90;99.90;;;;;;5033432;28;20048;-70
2023/07/16 12:28:57;;;;;;;9.73;8.93;;;42.20;99.90;;;;;;5032146;28;20083;-69
2023/07/16 12:31:22;;;;;;;9.93;8.80;;;42.00;99.90;;;;;;5033020;28;20029;-70
2023/07/16 12:33:48;;;;;;;9.20;8.40;;;42.00;99.90;;;;;;5032374;28;20439;-69
2023/07/16 12:36:14;;;;;;;9.27;8.48;;;41.60;99.90;;;;;;5023403;28;20100;-69
2023/07/16 12:38:41;;;;;;;9.38;8.35;;;40.80;99.90;;;;;;5032932;28;20105;-70
2023/07/16 12:41:07;;;;;;;9.52;8.82;;;42.10;99.90;;;;;;5030977;28;20559;-69